ADDS METAR Data INFO
IDs: Format: Raw Decoded Include TAF

Data at: 1145 UTC 23 Jun 2018

PATQ 220014Z 07011KT 10SM FEW016 07/03 A2999 RMK VIA PHONE